Main page
METAR-TAF:

METAR-TAF

Airports :

Vadsø Airport

Vadsø, Norway

latitude: 70-04N, longitude: 029-51E, elevation: 3 m

Current weather observation

The report was made 25 minutes ago, at 17:50 UTC
Wind 6 kt from the Northeast
Temperature 23°C
Humidity 50%
Pressure 1013 hPa
Visibility 10 km or more
no clouds below 1500 m and no cumulonimbus

METAR: ENVD 231750Z 05006KT CAVOK 23/12 Q1013

Time: 20:15 (18:15 UTC)

Forecast

The report was made 4 hours and 15 minutes ago, at 14:00 UTC
Forecast valid from 23 at 15 UTC to 23 at 23 UTC
Wind 6 kt from the East/Southeast
Visibility 10 km or more
no clouds below 1500 m and no cumulonimbus

TAF: ENVD 231400Z 2315/2323 12006KT CAVOK

Weather observations and forecasts of more than 4000 airports (METAR and TAF reports).

The available stations are represented by yellow and red dots on the map.

Hover mouse over dot to see the name of the station.

Then click to see weather observations and forecasts.

To change the map : click on the green buttons with a black cross to zoom in, on the green button with a dash to zoom out, or on the green arrows for adjacent maps.


METAR-TAF: